Time;durP1;ratioP1;P1;durP2;ratioP2;P2;SDS_P1;SDS_P2;PMS_P1;PMS_P2;Temp;Humidity;BMP_temperature;BMP_pressure;BME280_temperature;BME280_humidity;BME280_pressure;Samples;Min_cycle;Max_cycle;Signal;HPM_P1;HPM_P2
2022/03/26 07:04:06;;;;;;;14.13;8.73;;;;;;;;;;10540277;28;20436;-81
2022/03/26 07:09:07;;;;;;;11.52;8.32;;;;;;;;;;10505398;28;20090;-83
2022/03/26 07:14:08;;;;;;;;;;;;;;;;;;10505992;28;20398;-82
2022/03/26 07:19:10;;;;;;;14.02;9.90;;;;;;;;;;10505683;28;19909;-82
2022/03/26 07:24:13;;;;;;;13.88;9.65;;;;;;;;;;10507224;28;20048;-82
2022/03/26 07:29:16;;;;;;;15.18;10.68;;;;;;;;;;10518006;28;20040;-82
2022/03/26 07:34:30;;;;;;;13.43;9.52;;;;;;;;;;10508772;28;20044;-84
2022/03/26 07:39:32;;;;;;;16.83;11.50;;;;;;;;;;10502276;28;20028;-83
2022/03/26 07:44:33;;;;;;;25.25;17.95;;;;;;;;;;10501977;28;20035;-81
2022/03/26 07:49:34;;;;;;;15.98;10.57;;;;;;;;;;10502357;28;20017;-82
2022/03/26 07:54:35;;;;;;;10.68;6.68;;;;;;;;;;10503511;28;20025;-81
2022/03/26 07:59:36;;;;;;;11.57;6.82;;;;;;;;;;10494911;28;20052;-81
2022/03/26 08:04:37;;;;;;;11.77;8.65;;;;;;;;;;10468905;28;20092;-80
2022/03/26 08:09:38;;;;;;;15.95;10.80;;;;;;;;;;10469168;28;20128;-81
2022/03/26 08:14:39;;;;;;;18.35;11.70;;;;;;;;;;10442552;28;20049;-81
2022/03/26 08:20:28;;;;;;;17.50;11.93;;;;;;;;;;10448950;28;20025;-80
2022/03/26 08:25:06;;;;;;;19.20;12.38;;;;;;;;;;10449983;28;20060;-80
2022/03/26 08:30:08;;;;;;;19.42;11.70;;;;;;;;;;10453405;28;20152;-81
2022/03/26 08:35:10;;;;;;;18.05;11.23;;;;;;;;;;10453271;28;20083;-81
2022/03/26 08:40:11;;;;;;;23.13;13.68;;;;;;;;;;10453121;28;20438;-82
2022/03/26 08:45:15;;;;;;;19.45;12.65;;;;;;;;;;10458526;28;20133;-81
2022/03/26 08:50:16;;;;;;;19.83;12.82;;;;;;;;;;10456584;28;20116;-80
2022/03/26 08:55:20;;;;;;;18.15;12.27;;;;;;;;;;10452089;28;20487;-79
2022/03/26 09:00:21;;;;;;;17.33;12.00;;;;;;;;;;10452130;28;20037;-80
2022/03/26 09:05:23;;;;;;;22.80;15.98;;;;;;;;;;10453635;28;20026;-80
2022/03/26 09:10:24;;;;;;;18.48;11.98;;;;;;;;;;10456053;28;20037;-81
2022/03/26 09:15:25;;;;;;;19.02;11.73;;;;;;;;;;10457147;28;20042;-81
2022/03/26 09:20:26;;;;;;;16.17;10.77;;;;;;;;;;10455489;28;20052;-80
2022/03/26 09:25:29;;;;;;;16.38;12.25;;;;;;;;;;10462430;28;20049;-80
2022/03/26 09:30:31;;;;;;;16.20;10.88;;;;;;;;;;10452713;28;20045;-80
2022/03/26 09:35:40;;;;;;;21.65;12.57;;;;;;;;;;10449155;28;20021;-80
2022/03/26 09:40:44;;;;;;;17.17;11.32;;;;;;;;;;10447780;28;20029;-78
2022/03/26 09:45:45;;;;;;;16.08;10.15;;;;;;;;;;10443803;28;20033;-80
2022/03/26 09:51:05;;;;;;;13.93;9.75;;;;;;;;;;10451759;28;20045;-79
2022/03/26 09:56:16;;;;;;;17.17;9.68;;;;;;;;;;10971556;23;20103;-78
2022/03/26 10:01:17;;;;;;;;;;;;;;;;;;10467849;28;20071;-79
2022/03/26 10:06:24;;;;;;;18.80;9.25;;;;;;;;;;10469437;28;19911;-82
2022/03/26 10:11:25;;;;;;;18.75;10.93;;;;;;;;;;10479120;28;20021;-83
2022/03/26 10:16:27;;;;;;;14.20;8.77;;;;;;;;;;10477003;28;20487;-82
2022/03/26 10:21:28;;;;;;;14.60;8.43;;;;;;;;;;10476080;28;20035;-82
2022/03/26 10:26:29;;;;;;;13.38;8.30;;;;;;;;;;10475597;28;20028;-83
2022/03/26 10:36:57;;;;;;;12.23;8.68;;;;;;;;;;10489345;28;20025;-82
2022/03/26 10:41:58;;;;;;;13.40;8.95;;;;;;;;;;10467698;28;20055;-79
2022/03/26 10:47:01;;;;;;;14.25;7.95;;;;;;;;;;10465221;28;20025;-80
2022/03/26 10:52:13;;;;;;;13.00;9.32;;;;;;;;;;10466009;28;20132;-80
2022/03/26 11:09:00;;;;;;;11.90;7.93;;;;;;;;;;11998051;23;20045;-82
2022/03/26 11:13:48;;;;;;;9.13;6.55;;;;;;;;;;10444065;28;20042;-82
2022/03/26 11:19:31;;;;;;;9.02;6.97;;;;;;;;;;10452861;28;20033;-81
2022/03/26 11:25:02;;;;;;;13.15;8.40;;;;;;;;;;10449646;28;20037;-82
2022/03/26 11:30:21;;;;;;;11.20;6.78;;;;;;;;;;10418511;28;20580;-84
2022/03/26 11:35:27;;;;;;;10.83;6.77;;;;;;;;;;10434024;28;20029;-84
2022/03/26 11:40:45;;;;;;;9.75;6.70;;;;;;;;;;10451786;28;20037;-81
2022/03/26 11:51:16;;;;;;;12.05;8.45;;;;;;;;;;10467401;28;20029;-82
2022/03/26 11:56:22;;;;;;;12.23;8.25;;;;;;;;;;10450701;28;20029;-83
2022/03/26 12:01:23;;;;;;;9.82;6.78;;;;;;;;;;10451333;28;20017;-81
2022/03/26 12:06:36;;;;;;;16.77;7.32;;;;;;;;;;10451412;28;20109;-82
2022/03/26 12:11:38;;;;;;;8.52;7.28;;;;;;;;;;10444822;28;20033;-79
2022/03/26 12:16:52;;;;;;;8.75;6.13;;;;;;;;;;10427348;28;20089;-79
2022/03/26 12:21:53;;;;;;;7.78;5.90;;;;;;;;;;10427592;28;20026;-80
2022/03/26 12:26:55;;;;;;;12.07;7.47;;;;;;;;;;10426269;28;20033;-80
2022/03/26 12:32:06;;;;;;;8.00;6.38;;;;;;;;;;10426608;28;20029;-79
2022/03/26 12:37:10;;;;;;;9.65;6.07;;;;;;;;;;10429615;28;20033;-79
2022/03/26 12:42:15;;;;;;;8.07;5.55;;;;;;;;;;10446378;28;20025;-79
2022/03/26 12:47:21;;;;;;;6.32;5.05;;;;;;;;;;10438766;28;20033;-79
2022/03/26 12:52:31;;;;;;;5.72;4.53;;;;;;;;;;10439840;28;20029;-84
2022/03/26 13:03:16;;;;;;;6.43;4.60;;;;;;;;;;10459422;28;20025;-83
2022/03/26 13:08:17;;;;;;;9.68;7.35;;;;;;;;;;10428643;28;20025;-82
2022/03/26 13:13:20;;;;;;;17.08;12.93;;;;;;;;;;10441105;28;20033;-84
2022/03/26 13:18:21;;;;;;;12.02;7.30;;;;;;;;;;10435376;28;20035;-84
2022/03/26 13:23:28;;;;;;;6.25;5.05;;;;;;;;;;10416318;28;20029;-83
2022/03/26 13:28:33;;;;;;;8.82;6.70;;;;;;;;;;10416540;28;20032;-84
2022/03/26 13:33:34;;;;;;;7.57;5.88;;;;;;;;;;10414494;28;20029;-84
2022/03/26 13:38:43;;;;;;;10.10;7.10;;;;;;;;;;10433658;28;20484;-83
2022/03/26 13:43:44;;;;;;;11.18;6.97;;;;;;;;;;10415752;28;20076;-84
2022/03/26 13:48:48;;;;;;;7.82;5.68;;;;;;;;;;10415138;28;20030;-84
2022/03/26 13:53:49;;;;;;;6.47;4.78;;;;;;;;;;10415649;28;20025;-82
2022/03/26 13:58:51;;;;;;;10.98;7.70;;;;;;;;;;10433576;28;20056;-84
2022/03/26 14:03:57;;;;;;;12.48;8.73;;;;;;;;;;10414852;28;20108;-85
2022/03/26 14:09:01;;;;;;;9.05;6.53;;;;;;;;;;10413572;28;20128;-81
2022/03/26 14:14:02;;;;;;;10.27;6.68;;;;;;;;;;10412048;28;20084;-79
2022/03/26 14:19:04;;;;;;;10.80;8.48;;;;;;;;;;10410751;28;20033;-79
2022/03/26 14:24:05;;;;;;;12.98;8.13;;;;;;;;;;10428043;28;20033;-81
2022/03/26 14:29:06;;;;;;;12.38;9.57;;;;;;;;;;10419959;28;20096;-82
2022/03/26 14:34:07;;;;;;;10.02;8.10;;;;;;;;;;10416340;28;20041;-79
2022/03/26 14:39:08;;;;;;;14.25;9.75;;;;;;;;;;10413175;28;20029;-80
2022/03/26 14:44:09;;;;;;;13.90;9.68;;;;;;;;;;10410770;28;20025;-82
2022/03/26 14:49:10;;;;;;;10.85;8.82;;;;;;;;;;10411807;28;20029;-80
2022/03/26 14:54:11;;;;;;;13.45;10.40;;;;;;;;;;10429039;28;20029;-79
2022/03/26 14:59:12;;;;;;;25.33;18.92;;;;;;;;;;10411931;28;20025;-82
2022/03/26 15:04:13;;;;;;;11.30;8.98;;;;;;;;;;10422666;28;20030;-79
2022/03/26 15:09:14;;;;;;;9.65;7.82;;;;;;;;;;10413806;28;20037;-79
2022/03/26 15:14:15;;;;;;;13.88;8.85;;;;;;;;;;10410570;28;20075;-79
2022/03/26 15:19:16;;;;;;;13.02;8.55;;;;;;;;;;10407995;28;20022;-81
2022/03/26 15:24:17;;;;;;;12.05;9.23;;;;;;;;;;10413943;28;20029;-80
2022/03/26 15:29:18;;;;;;;13.18;9.65;;;;;;;;;;10416006;28;20117;-81
2022/03/26 15:34:20;;;;;;;10.00;7.18;;;;;;;;;;10413997;28;20531;-79
2022/03/26 15:39:21;;;;;;;16.52;13.40;;;;;;;;;;10414897;28;20036;-79
2022/03/26 15:44:22;;;;;;;11.40;8.80;;;;;;;;;;10413667;28;20472;-79
2022/03/26 15:49:24;;;;;;;10.73;8.05;;;;;;;;;;10414072;28;20451;-79
2022/03/26 15:54:25;;;;;;;9.25;7.43;;;;;;;;;;10412770;28;20021;-81
2022/03/26 15:59:26;;;;;;;11.05;8.65;;;;;;;;;;10413417;28;20036;-80
2022/03/26 16:04:27;;;;;;;11.88;9.60;;;;;;;;;;10432049;28;20096;-83
2022/03/26 16:09:28;;;;;;;9.48;7.22;;;;;;;;;;10418508;28;20072;-82
2022/03/26 16:14:29;;;;;;;11.48;6.97;;;;;;;;;;10417425;28;20104;-82
2022/03/26 16:19:30;;;;;;;12.75;9.27;;;;;;;;;;10417150;28;20056;-82
2022/03/26 16:24:31;;;;;;;9.15;7.30;;;;;;;;;;10418422;28;20033;-82
2022/03/26 16:29:32;;;;;;;10.25;8.07;;;;;;;;;;10418274;28;20017;-82
2022/03/26 16:34:33;;;;;;;9.45;7.90;;;;;;;;;;10415847;28;20048;-82
2022/03/26 16:39:34;;;;;;;10.25;7.30;;;;;;;;;;10425482;28;20075;-80
2022/03/26 16:44:36;;;;;;;7.97;6.82;;;;;;;;;;10447810;28;20411;-82
2022/03/26 16:49:47;;;;;;;6.85;5.32;;;;;;;;;;10450455;23;20056;-83
2022/03/26 16:54:50;;;;;;;7.43;6.05;;;;;;;;;;10431638;28;20498;-84
2022/03/26 16:59:59;;;;;;;13.75;9.75;;;;;;;;;;10435884;28;20112;-84
2022/03/26 17:05:00;;;;;;;8.35;7.10;;;;;;;;;;10434205;28;20068;-84
2022/03/26 17:10:04;;;;;;;5.68;4.60;;;;;;;;;;10433960;28;20032;-83
2022/03/26 17:15:09;;;;;;;5.63;4.82;;;;;;;;;;10434675;28;20022;-85
2022/03/26 17:20:13;;;;;;;9.77;7.10;;;;;;;;;;10427817;28;20037;-83
2022/03/26 17:25:17;;;;;;;5.82;4.85;;;;;;;;;;10430712;28;20034;-84
2022/03/26 17:30:31;;;;;;;6.57;5.88;;;;;;;;;;10429191;28;20028;-84
2022/03/26 17:35:39;;;;;;;9.73;6.97;;;;;;;;;;10429957;28;20024;-83
2022/03/26 17:40:45;;;;;;;10.20;7.40;;;;;;;;;;10430018;28;20097;-84
2022/03/26 17:45:51;;;;;;;11.80;8.60;;;;;;;;;;10430847;28;20036;-83
2022/03/26 17:50:53;;;;;;;16.02;11.55;;;;;;;;;;10430226;28;20113;-83
2022/03/26 17:55:54;;;;;;;7.07;6.18;;;;;;;;;;10430495;28;20026;-83
2022/03/26 18:00:55;;;;;;;13.27;8.73;;;;;;;;;;10432103;28;20136;-83
2022/03/26 18:05:57;;;;;;;4.57;4.05;;;;;;;;;;10430197;28;20108;-84
2022/03/26 18:11:04;;;;;;;7.53;5.35;;;;;;;;;;10431626;28;20029;-86
2022/03/26 18:16:08;;;;;;;5.25;4.40;;;;;;;;;;10434976;28;20025;-84
2022/03/26 18:21:12;;;;;;;5.32;4.72;;;;;;;;;;10438944;28;20025;-84
2022/03/26 18:26:15;;;;;;;4.40;3.65;;;;;;;;;;10424267;28;20017;-83
2022/03/26 18:31:17;;;;;;;12.80;11.50;;;;;;;;;;10427054;28;20364;-83
2022/03/26 18:36:18;;;;;;;8.23;7.43;;;;;;;;;;10423305;28;20164;-84
2022/03/26 18:41:24;;;;;;;9.27;7.75;;;;;;;;;;10424443;28;20025;-85
2022/03/26 18:46:27;;;;;;;7.03;6.32;;;;;;;;;;10426224;28;20037;-84
2022/03/26 18:51:28;;;;;;;11.20;9.82;;;;;;;;;;10430599;28;20026;-84
2022/03/26 18:56:32;;;;;;;8.35;5.78;;;;;;;;;;10430037;28;20075;-84
2022/03/26 19:01:33;;;;;;;9.73;7.63;;;;;;;;;;10429498;28;20035;-87
2022/03/26 19:06:38;;;;;;;9.32;7.25;;;;;;;;;;10425263;28;20084;-85
2022/03/26 19:11:39;;;;;;;7.93;6.10;;;;;;;;;;10423861;28;20095;-84
2022/03/26 19:16:41;;;;;;;5.63;4.85;;;;;;;;;;10423410;28;20022;-83
2022/03/26 19:21:42;;;;;;;10.48;6.93;;;;;;;;;;10424709;28;20049;-84
2022/03/26 19:49:52;;;;;;;3.40;3.10;;;;;;;;;;10184177;29;20132;-85
2022/03/26 19:54:53;;;;;;;10.60;8.68;;;;;;;;;;10379075;28;20041;-84
2022/03/26 19:59:55;;;;;;;4.68;3.70;;;;;;;;;;10425962;28;20384;-84
2022/03/26 20:04:56;;;;;;;6.47;4.25;;;;;;;;;;10435136;28;20087;-84
2022/03/26 20:10:02;;;;;;;7.38;6.18;;;;;;;;;;10429808;28;20014;-84
2022/03/26 20:15:11;;;;;;;6.45;5.03;;;;;;;;;;10431113;28;20025;-84
2022/03/26 20:20:12;;;;;;;6.97;6.18;;;;;;;;;;10429551;28;20029;-85
2022/03/26 20:25:22;;;;;;;6.65;5.13;;;;;;;;;;10437206;28;20041;-85
